Terminal Aerodrome Forecast
Issued by NWS St Louis, MO

Home | Current Version | Previous Version | Text Only | Print | Product List | Glossary On
Versions: 1 2 3 4 5 6 7 8 9 10 11 12 13 14 15 16 17 18 19 20 21 22 23 24 25 26 27 28
930
FTUS43 KLSX 131457 AAA
TAFSTL
TAF AMD
KSTL 131457Z 1315/1418 20013G22KT P6SM FEW250
     FM131600 23015G24KT P6SM SCT200
     FM132000 29017G28KT P6SM FEW045
     FM140500 32011G20KT P6SM BKN025
     FM140900 33010G17KT P6SM SCT035=

USA.gov is the U.S. government's official web portal to all federal, state and local government web resources and services.